createdAt,value
2023-01-19T00:01:08.914Z,99.90
2023-01-19T00:03:37.000Z,99.90
2023-01-19T00:06:07.490Z,99.90
2023-01-19T00:08:35.601Z,99.90
2023-01-19T00:11:02.657Z,99.90
2023-01-19T00:13:29.611Z,99.90
2023-01-19T00:15:56.673Z,99.90
2023-01-19T00:18:23.657Z,99.90
2023-01-19T00:20:50.582Z,99.90
2023-01-19T00:23:17.553Z,99.90
2023-01-19T00:25:44.529Z,99.90
2023-01-19T00:28:12.051Z,99.90
2023-01-19T00:30:39.405Z,99.90
2023-01-19T00:33:06.384Z,99.90
2023-01-19T00:35:33.914Z,99.90
2023-01-19T00:38:00.907Z,99.90
2023-01-19T00:40:27.850Z,99.90
2023-01-19T00:42:54.995Z,99.90
2023-01-19T00:45:23.082Z,99.90
2023-01-19T00:47:54.785Z,99.90
2023-01-19T00:50:21.864Z,99.90
2023-01-19T00:52:48.771Z,99.90
2023-01-19T00:55:16.070Z,99.90
2023-01-19T00:57:43.157Z,99.90
2023-01-19T01:00:12.271Z,99.90
2023-01-19T01:02:40.076Z,99.90
2023-01-19T01:05:07.700Z,99.90
2023-01-19T01:07:41.225Z,99.90
2023-01-19T01:10:15.424Z,99.90
2023-01-19T01:12:56.168Z,99.90
2023-01-19T01:15:24.927Z,99.90
2023-01-19T01:17:53.399Z,99.90
2023-01-19T01:20:25.382Z,99.90
2023-01-19T01:22:52.822Z,99.90
2023-01-19T01:25:22.610Z,99.90
2023-01-19T01:27:50.731Z,99.90
2023-01-19T01:30:17.881Z,99.90
2023-01-19T01:32:44.861Z,99.90
2023-01-19T01:35:12.212Z,99.90
2023-01-19T01:37:39.146Z,99.90
2023-01-19T01:40:06.972Z,99.90
2023-01-19T01:42:34.222Z,99.90
2023-01-19T01:45:02.808Z,99.90
2023-01-19T01:47:34.769Z,99.90
2023-01-19T01:50:09.306Z,99.90
2023-01-19T01:52:37.572Z,99.90
2023-01-19T01:55:06.982Z,99.90
2023-01-19T01:57:38.675Z,99.90
2023-01-19T02:00:06.443Z,99.90
2023-01-19T02:02:55.316Z,99.90
2023-01-19T02:05:33.187Z,99.90
2023-01-19T02:08:24.592Z,99.90
2023-01-19T02:11:10.044Z,99.90
2023-01-19T02:13:39.031Z,99.90
2023-01-19T02:16:09.320Z,99.90
2023-01-19T02:18:36.669Z,99.90
2023-01-19T02:21:22.443Z,99.90
2023-01-19T02:23:50.538Z,99.90
2023-01-19T02:26:28.590Z,99.90
2023-01-19T02:28:58.257Z,99.90
2023-01-19T02:31:25.757Z,99.90
2023-01-19T02:33:52.840Z,99.90
2023-01-19T02:36:25.895Z,99.90
2023-01-19T02:38:56.262Z,99.90
2023-01-19T02:41:25.285Z,99.90
2023-01-19T02:43:52.188Z,99.90
2023-01-19T02:46:19.306Z,99.90
2023-01-19T02:48:46.261Z,99.90
2023-01-19T02:51:23.196Z,99.90
2023-01-19T02:54:17.484Z,99.90
2023-01-19T02:56:56.776Z,99.90
2023-01-19T02:59:38.905Z,99.90
2023-01-19T03:02:11.824Z,99.90
2023-01-19T03:04:38.931Z,99.90
2023-01-19T03:07:28.796Z,99.90
2023-01-19T03:10:14.910Z,99.90
2023-01-19T03:13:12.503Z,99.90
2023-01-19T03:15:47.930Z,99.90
2023-01-19T03:18:16.076Z,99.90
2023-01-19T03:20:43.143Z,99.90
2023-01-19T03:23:11.605Z,99.90
2023-01-19T03:25:40.758Z,99.90
2023-01-19T03:28:07.793Z,99.90
2023-01-19T03:30:40.652Z,99.90
2023-01-19T03:33:20.996Z,99.90
2023-01-19T03:35:49.705Z,99.90
2023-01-19T03:38:18.896Z,99.90
2023-01-19T03:40:45.861Z,99.90
2023-01-19T03:43:13.168Z,99.90
2023-01-19T03:45:40.189Z,99.90
2023-01-19T03:48:07.375Z,99.90
2023-01-19T03:50:34.327Z,99.90
2023-01-19T03:53:11.608Z,99.90
2023-01-19T03:55:39.814Z,99.90
2023-01-19T03:58:06.841Z,99.90
2023-01-19T04:00:34.014Z,99.90
2023-01-19T04:03:01.152Z,99.90
2023-01-19T04:05:29.450Z,99.90
2023-01-19T04:07:56.434Z,99.90
2023-01-19T04:10:23.615Z,99.90
2023-01-19T04:12:50.551Z,99.90
2023-01-19T04:15:18.721Z,99.90
2023-01-19T04:17:45.716Z,99.90
2023-01-19T04:20:12.831Z,99.90
2023-01-19T04:22:40.010Z,99.90
2023-01-19T04:25:07.780Z,99.90
2023-01-19T04:27:35.269Z,99.90
2023-01-19T04:30:03.666Z,99.90
2023-01-19T04:32:31.032Z,99.90
2023-01-19T04:34:57.980Z,99.90
2023-01-19T04:37:24.935Z,99.90
2023-01-19T04:39:51.910Z,99.90
2023-01-19T04:42:18.849Z,99.90
2023-01-19T04:44:46.011Z,99.90
2023-01-19T04:47:12.977Z,99.90
2023-01-19T04:49:40.434Z,99.90
2023-01-19T04:52:07.383Z,99.90
2023-01-19T04:54:34.290Z,99.90
2023-01-19T04:57:01.243Z,99.90
2023-01-19T04:59:28.158Z,99.90
2023-01-19T05:01:56.109Z,99.90
2023-01-19T05:04:23.737Z,99.90
2023-01-19T05:06:51.692Z,99.90
2023-01-19T05:09:18.617Z,99.90
2023-01-19T05:11:45.529Z,99.90
2023-01-19T05:14:12.477Z,99.90
2023-01-19T05:16:39.391Z,99.90
2023-01-19T05:19:06.331Z,99.90
2023-01-19T05:21:33.265Z,99.90
2023-01-19T05:24:00.257Z,99.90
2023-01-19T05:26:27.201Z,99.90
2023-01-19T05:28:54.258Z,99.90
2023-01-19T05:31:21.324Z,99.90
2023-01-19T05:33:49.128Z,99.90
2023-01-19T05:36:16.071Z,99.90
2023-01-19T05:38:43.072Z,99.90
2023-01-19T05:41:10.094Z,99.90
2023-01-19T05:43:37.020Z,99.90
2023-01-19T05:46:05.362Z,99.90
2023-01-19T05:48:32.422Z,99.90
2023-01-19T05:51:00.146Z,99.90
2023-01-19T05:53:27.664Z,99.90
2023-01-19T05:56:02.733Z,99.90
2023-01-19T05:58:29.733Z,99.90
2023-01-19T06:00:56.869Z,99.90
2023-01-19T06:03:24.594Z,99.90
2023-01-19T06:05:51.518Z,99.90
2023-01-19T06:08:18.465Z,99.90
2023-01-19T06:10:45.463Z,99.90
2023-01-19T06:13:12.505Z,99.90
2023-01-19T06:15:39.498Z,99.90
2023-01-19T06:18:06.549Z,99.90
2023-01-19T06:20:33.932Z,99.90
2023-01-19T06:23:01.003Z,99.90
2023-01-19T06:25:28.192Z,99.90
2023-01-19T06:27:55.165Z,99.90
2023-01-19T06:30:22.131Z,99.90
2023-01-19T06:32:49.186Z,99.90
2023-01-19T06:35:16.163Z,99.90
2023-01-19T06:37:43.089Z,99.90
2023-01-19T06:40:12.002Z,99.90
2023-01-19T06:42:39.803Z,99.90
2023-01-19T06:45:07.382Z,99.90
2023-01-19T06:47:34.498Z,99.90
2023-01-19T06:50:02.319Z,99.90
2023-01-19T06:52:29.229Z,99.90
2023-01-19T06:54:56.747Z,99.90
2023-01-19T06:57:25.881Z,99.90
2023-01-19T06:59:52.918Z,99.90
2023-01-19T07:02:26.411Z,99.90
2023-01-19T07:04:55.569Z,99.90
2023-01-19T07:07:22.548Z,99.90
2023-01-19T07:09:49.623Z,99.90
2023-01-19T07:12:21.152Z,99.90
2023-01-19T07:14:49.576Z,99.90
2023-01-19T07:17:16.605Z,99.90
2023-01-19T07:19:43.609Z,99.90
2023-01-19T07:22:10.528Z,99.90
2023-01-19T07:24:38.190Z,99.90
2023-01-19T07:27:05.515Z,99.90
2023-01-19T07:29:32.465Z,99.90
2023-01-19T07:31:59.538Z,99.90
2023-01-19T07:34:26.474Z,99.90
2023-01-19T07:36:53.371Z,99.90
2023-01-19T07:39:20.337Z,99.90
2023-01-19T07:41:48.801Z,99.90
2023-01-19T07:44:15.745Z,99.90
2023-01-19T07:46:43.429Z,99.90
2023-01-19T07:49:10.453Z,99.90
2023-01-19T07:51:37.455Z,99.90
2023-01-19T07:54:04.487Z,99.90
2023-01-19T07:56:33.910Z,99.90
2023-01-19T07:59:01.156Z,99.90
2023-01-19T08:01:28.265Z,99.90
2023-01-19T08:03:55.278Z,99.90
2023-01-19T08:06:27.700Z,99.90
2023-01-19T08:08:54.660Z,99.90
2023-01-19T08:11:21.578Z,99.90
2023-01-19T08:13:48.507Z,99.90
2023-01-19T08:16:15.463Z,99.90
2023-01-19T08:18:42.707Z,99.90
2023-01-19T08:21:09.653Z,99.90
2023-01-19T08:23:36.577Z,99.90
2023-01-19T08:26:17.163Z,99.90
2023-01-19T08:28:44.104Z,99.90
2023-01-19T08:31:20.193Z,99.90
2023-01-19T08:33:48.706Z,99.90
2023-01-19T08:36:15.641Z,99.90
2023-01-19T08:38:45.008Z,99.90
2023-01-19T08:41:12.354Z,99.90
2023-01-19T08:43:39.306Z,99.90
2023-01-19T08:46:06.415Z,99.90
2023-01-19T08:48:33.494Z,99.90
2023-01-19T08:51:00.590Z,99.90
2023-01-19T08:53:27.532Z,99.90
2023-01-19T08:55:57.516Z,99.90
2023-01-19T08:58:24.657Z,99.90
2023-01-19T09:00:52.770Z,99.90
2023-01-19T09:03:20.984Z,99.90
2023-01-19T09:05:48.053Z,99.90
2023-01-19T09:08:15.216Z,99.90
2023-01-19T09:10:49.649Z,99.90
2023-01-19T09:13:16.963Z,99.90
2023-01-19T09:15:44.035Z,99.90
2023-01-19T09:18:13.728Z,99.90
2023-01-19T09:20:42.708Z,99.90
2023-01-19T09:23:14.368Z,99.90
2023-01-19T09:25:44.044Z,99.90
2023-01-19T09:28:11.835Z,99.90
2023-01-19T09:30:39.875Z,99.90
2023-01-19T09:33:08.177Z,99.90
2023-01-19T09:35:35.171Z,99.90
2023-01-19T09:38:02.578Z,99.90
2023-01-19T09:40:30.051Z,99.90
2023-01-19T09:43:04.618Z,99.90
2023-01-19T09:45:36.116Z,99.90
2023-01-19T09:48:05.337Z,99.90
2023-01-19T09:50:34.233Z,99.90
2023-01-19T09:53:07.443Z,99.90
2023-01-19T09:55:34.407Z,99.90
2023-01-19T09:58:01.662Z,99.90
2023-01-19T10:00:28.931Z,99.90
2023-01-19T10:02:58.976Z,99.90
2023-01-19T10:05:32.795Z,99.90
2023-01-19T10:08:24.323Z,99.90
2023-01-19T10:10:55.440Z,99.90
2023-01-19T10:13:30.907Z,99.90
2023-01-19T10:16:15.011Z,99.90
2023-01-19T10:18:51.627Z,99.90
2023-01-19T10:21:29.154Z,99.90
2023-01-19T10:24:05.868Z,99.90
2023-01-19T10:26:36.362Z,99.90
2023-01-19T10:29:18.492Z,99.90
2023-01-19T10:31:45.430Z,99.90
2023-01-19T10:34:21.592Z,99.90
2023-01-19T10:36:50.644Z,99.90
2023-01-19T10:39:18.402Z,99.90
2023-01-19T10:41:51.201Z,99.90
2023-01-19T10:44:25.855Z,99.90
2023-01-19T10:46:54.538Z,99.90
2023-01-19T10:49:31.335Z,99.90
2023-01-19T10:51:58.998Z,99.90
2023-01-19T10:54:26.647Z,99.90
2023-01-19T10:57:04.046Z,99.90
2023-01-19T10:59:44.389Z,99.90
2023-01-19T11:02:28.834Z,99.90
2023-01-19T11:04:57.484Z,99.90
2023-01-19T11:07:32.549Z,99.90
2023-01-19T11:10:20.849Z,99.90
2023-01-19T11:13:02.015Z,99.90
2023-01-19T11:15:34.863Z,99.90
2023-01-19T11:18:03.966Z,99.90
2023-01-19T11:20:38.879Z,99.90
2023-01-19T11:23:28.530Z,99.90
2023-01-19T11:25:58.569Z,99.90
2023-01-19T11:28:27.329Z,97.70
2023-01-19T11:30:59.110Z,96.40
2023-01-19T11:33:33.977Z,97.80
2023-01-19T11:36:06.929Z,97.00
2023-01-19T11:38:40.538Z,99.90
2023-01-19T11:41:07.800Z,93.70
2023-01-19T11:43:48.225Z,92.90
2023-01-19T11:46:15.882Z,91.80
2023-01-19T11:48:43.854Z,91.70
2023-01-19T11:51:16.601Z,92.10
2023-01-19T11:53:44.817Z,92.80
2023-01-19T11:56:12.597Z,93.10
2023-01-19T11:58:41.624Z,92.10
2023-01-19T12:01:21.994Z,92.10
2023-01-19T12:04:15.035Z,89.00
2023-01-19T12:06:49.551Z,84.50
2023-01-19T12:09:38.974Z,87.60
2023-01-19T12:12:16.990Z,83.30
2023-01-19T12:14:47.777Z,86.30
2023-01-19T12:17:19.928Z,89.30
2023-01-19T12:19:54.899Z,80.40
2023-01-19T12:22:22.607Z,82.60
2023-01-19T12:25:03.199Z,85.70
2023-01-19T12:27:41.170Z,85.10
2023-01-19T12:30:27.398Z,80.30
2023-01-19T12:33:26.380Z,82.80
2023-01-19T12:36:01.017Z,80.50
2023-01-19T12:38:43.155Z,77.60
2023-01-19T12:41:29.083Z,79.30
2023-01-19T12:44:11.641Z,78.60
2023-01-19T12:46:46.108Z,79.50
2023-01-19T12:49:38.022Z,79.40
2023-01-19T12:52:40.553Z,83.70
2023-01-19T12:55:13.572Z,79.20
2023-01-19T12:57:49.641Z,79.40
2023-01-19T13:00:22.459Z,80.30
2023-01-19T13:02:50.096Z,71.60
2023-01-19T13:05:19.111Z,59.90
2023-01-19T13:08:05.477Z,48.30
2023-01-19T13:10:54.215Z,51.20
2023-01-19T13:13:24.758Z,39.40
2023-01-19T13:15:54.780Z,44.20
2023-01-19T13:18:27.725Z,42.20
2023-01-19T13:21:00.574Z,42.30
2023-01-19T13:23:28.909Z,41.50
2023-01-19T13:26:01.385Z,42.80
2023-01-19T13:28:35.603Z,42.40
2023-01-19T13:31:03.269Z,43.00
2023-01-19T13:33:34.389Z,40.60
2023-01-19T13:36:01.558Z,37.80
2023-01-19T13:38:28.832Z,39.70
2023-01-19T13:40:56.208Z,39.10
2023-01-19T13:43:27.836Z,38.70
2023-01-19T13:45:54.888Z,33.60
2023-01-19T13:48:23.026Z,32.50
2023-01-19T13:50:57.323Z,32.70
2023-01-19T13:53:24.493Z,35.70
2023-01-19T13:56:25.554Z,37.30
2023-01-19T13:58:59.599Z,33.80
2023-01-19T14:01:29.353Z,36.20
2023-01-19T14:03:57.501Z,36.20
2023-01-19T14:06:38.894Z,34.10
2023-01-19T14:09:19.282Z,36.70
2023-01-19T14:12:05.571Z,37.50
2023-01-19T14:14:32.728Z,34.10
2023-01-19T14:16:59.777Z,33.60
2023-01-19T14:19:27.041Z,32.40
2023-01-19T14:22:02.228Z,33.30
2023-01-19T14:24:32.034Z,35.10
2023-01-19T14:27:22.695Z,35.50
2023-01-19T14:29:50.743Z,34.00
2023-01-19T14:32:22.548Z,35.30
2023-01-19T14:35:13.649Z,32.30
2023-01-19T14:37:47.832Z,29.20
2023-01-19T14:40:19.579Z,32.00
2023-01-19T14:42:49.942Z,31.00
2023-01-19T14:45:21.436Z,30.50
2023-01-19T14:47:59.616Z,29.70
2023-01-19T14:50:34.269Z,29.80
2023-01-19T14:53:14.103Z,25.60
2023-01-19T14:56:10.217Z,22.50
2023-01-19T14:58:37.265Z,20.10
2023-01-19T15:01:04.773Z,21.10
2023-01-19T15:03:44.891Z,20.10
2023-01-19T15:06:19.691Z,17.20
2023-01-19T15:08:47.080Z,17.60
2023-01-19T15:11:34.465Z,17.80
2023-01-19T15:14:01.672Z,17.20
2023-01-19T15:16:29.864Z,12.20
2023-01-19T15:18:56.858Z,13.00
2023-01-19T15:21:26.578Z,13.00
2023-01-19T15:23:58.424Z,12.10
2023-01-19T15:26:26.292Z,12.60
2023-01-19T15:28:53.334Z,14.80
2023-01-19T15:31:21.991Z,14.20
2023-01-19T15:33:49.326Z,15.30
2023-01-19T15:36:18.606Z,15.50
2023-01-19T15:38:46.211Z,14.00
2023-01-19T15:41:14.038Z,14.40
2023-01-19T15:43:41.063Z,12.10
2023-01-19T15:46:09.093Z,13.60
2023-01-19T15:48:36.080Z,13.60
2023-01-19T15:51:03.074Z,14.50
2023-01-19T15:53:30.642Z,13.60
2023-01-19T15:55:57.598Z,11.80
2023-01-19T15:58:24.847Z,13.40
2023-01-19T16:00:56.003Z,13.00
2023-01-19T16:03:23.835Z,11.80
2023-01-19T16:05:50.799Z,11.40
2023-01-19T16:08:17.911Z,12.40
2023-01-19T16:10:44.892Z,12.60
2023-01-19T16:13:12.030Z,11.90
2023-01-19T16:15:39.399Z,14.10
2023-01-19T16:18:06.562Z,14.10
2023-01-19T16:20:33.683Z,14.50
2023-01-19T16:23:14.599Z,14.90
2023-01-19T16:25:42.131Z,15.70
2023-01-19T16:28:09.241Z,16.40
2023-01-19T16:30:36.234Z,17.10
2023-01-19T16:33:03.281Z,18.10
2023-01-19T16:35:30.286Z,18.70
2023-01-19T16:37:57.242Z,18.30
2023-01-19T16:40:24.337Z,19.10
2023-01-19T16:42:51.280Z,19.80
2023-01-19T16:45:18.224Z,20.00
2023-01-19T16:47:50.536Z,20.90
2023-01-19T16:50:17.733Z,21.70
2023-01-19T16:52:45.078Z,22.40
2023-01-19T16:55:12.153Z,23.50
2023-01-19T16:57:39.209Z,24.20
2023-01-19T17:00:07.550Z,24.70
2023-01-19T17:02:34.573Z,25.00
2023-01-19T17:05:01.607Z,26.20
2023-01-19T17:07:28.763Z,26.80
2023-01-19T17:09:56.211Z,27.50
2023-01-19T17:12:23.204Z,27.80
2023-01-19T17:14:50.399Z,28.90
2023-01-19T17:17:17.471Z,29.60
2023-01-19T17:19:45.234Z,31.80
2023-01-19T17:22:13.562Z,31.80
2023-01-19T17:24:42.625Z,32.80
2023-01-19T17:27:10.268Z,33.00
2023-01-19T17:29:37.286Z,35.40
2023-01-19T17:32:04.594Z,37.30
2023-01-19T17:34:32.054Z,36.20
2023-01-19T17:37:03.085Z,37.00
2023-01-19T17:39:30.676Z,36.10
2023-01-19T17:41:57.807Z,36.10
2023-01-19T17:44:25.007Z,35.90
2023-01-19T17:46:52.004Z,36.60
2023-01-19T17:49:18.944Z,36.50
2023-01-19T17:51:46.192Z,37.50
2023-01-19T17:54:14.432Z,36.30
2023-01-19T17:56:41.765Z,37.90
2023-01-19T17:59:08.726Z,39.00
2023-01-19T18:01:39.749Z,39.90
2023-01-19T18:04:07.377Z,42.00
2023-01-19T18:06:34.474Z,40.70
2023-01-19T18:09:01.747Z,39.40
2023-01-19T18:11:29.023Z,41.00
2023-01-19T18:13:56.201Z,40.70
2023-01-19T18:16:27.444Z,41.60
2023-01-19T18:18:55.144Z,43.00
2023-01-19T18:21:22.917Z,40.60
2023-01-19T18:23:50.499Z,40.90
2023-01-19T18:26:22.124Z,47.40
2023-01-19T18:28:49.229Z,51.10
2023-01-19T18:31:18.660Z,50.40
2023-01-19T18:33:45.806Z,51.00
2023-01-19T18:36:12.695Z,53.50
2023-01-19T18:38:39.712Z,62.80
2023-01-19T18:41:28.965Z,71.20
2023-01-19T18:43:59.820Z,78.40
2023-01-19T18:46:27.583Z,76.00
2023-01-19T18:48:54.896Z,75.50
2023-01-19T18:51:21.822Z,77.60
2023-01-19T18:53:48.959Z,80.70
2023-01-19T18:56:16.400Z,75.90
2023-01-19T18:58:43.481Z,77.90
2023-01-19T19:01:28.400Z,75.70
2023-01-19T19:03:56.416Z,74.50
2023-01-19T19:06:24.029Z,75.30
2023-01-19T19:08:51.403Z,72.00
2023-01-19T19:11:19.253Z,73.50
2023-01-19T19:13:46.205Z,73.50
2023-01-19T19:16:13.706Z,75.00
2023-01-19T19:18:40.902Z,76.60
2023-01-19T19:21:09.060Z,78.30
2023-01-19T19:23:36.812Z,82.20
2023-01-19T19:26:05.260Z,81.30
2023-01-19T19:28:33.333Z,78.80
2023-01-19T19:31:11.248Z,77.80
2023-01-19T19:33:38.763Z,78.40
2023-01-19T19:36:06.469Z,76.80
2023-01-19T19:38:33.710Z,75.40
2023-01-19T19:41:05.647Z,76.00
2023-01-19T19:43:33.142Z,77.00
2023-01-19T19:46:01.577Z,75.40
2023-01-19T19:48:28.624Z,74.70
2023-01-19T19:50:58.613Z,73.90
2023-01-19T19:53:27.304Z,73.00
2023-01-19T19:56:01.357Z,73.50
2023-01-19T19:58:28.574Z,73.70
2023-01-19T20:00:55.654Z,73.90
2023-01-19T20:03:22.757Z,70.90
2023-01-19T20:05:49.732Z,73.50
2023-01-19T20:08:16.752Z,71.70
2023-01-19T20:10:43.713Z,71.00
2023-01-19T20:13:10.788Z,74.20
2023-01-19T20:15:38.520Z,73.90
2023-01-19T20:18:06.366Z,76.40
2023-01-19T20:20:34.152Z,82.10
2023-01-19T20:23:01.884Z,83.60
2023-01-19T20:25:29.022Z,82.60
2023-01-19T20:27:57.052Z,84.10
2023-01-19T20:30:24.133Z,87.30
2023-01-19T20:32:51.520Z,89.10
2023-01-19T20:35:18.512Z,89.90
2023-01-19T20:37:45.653Z,88.60
2023-01-19T20:40:12.787Z,88.10
2023-01-19T20:42:41.399Z,84.70
2023-01-19T20:45:08.511Z,87.10
2023-01-19T20:47:35.541Z,86.50
2023-01-19T20:50:02.604Z,86.50
2023-01-19T20:52:29.616Z,87.20
2023-01-19T20:54:56.669Z,86.40
2023-01-19T20:57:23.740Z,87.20
2023-01-19T20:59:50.776Z,88.40
2023-01-19T21:02:17.887Z,89.90
2023-01-19T21:04:44.881Z,89.60
2023-01-19T21:07:11.865Z,90.20
2023-01-19T21:09:39.805Z,90.50
2023-01-19T21:12:08.174Z,90.40
2023-01-19T21:14:35.274Z,89.80
2023-01-19T21:17:02.476Z,90.70
2023-01-19T21:19:29.760Z,90.30
2023-01-19T21:21:57.314Z,90.40
2023-01-19T21:24:24.264Z,90.00
2023-01-19T21:26:51.181Z,90.10
2023-01-19T21:29:18.232Z,90.70
2023-01-19T21:31:45.215Z,90.90
2023-01-19T21:34:12.242Z,90.70
2023-01-19T21:36:39.242Z,91.80
2023-01-19T21:39:08.078Z,91.00
2023-01-19T21:41:35.994Z,91.60
2023-01-19T21:44:03.225Z,92.30
2023-01-19T21:46:30.622Z,92.50
2023-01-19T21:48:58.292Z,92.90
2023-01-19T21:51:25.295Z,92.00
2023-01-19T21:53:52.515Z,92.80
2023-01-19T21:56:19.466Z,92.90
2023-01-19T21:58:49.411Z,93.90
2023-01-19T22:01:16.557Z,94.40
2023-01-19T22:03:43.686Z,95.30
2023-01-19T22:06:14.237Z,96.10
2023-01-19T22:08:41.635Z,96.20
2023-01-19T22:11:09.842Z,96.50
2023-01-19T22:13:38.608Z,96.90
2023-01-19T22:16:10.888Z,96.40
2023-01-19T22:18:38.666Z,96.40
2023-01-19T22:21:13.505Z,96.10
2023-01-19T22:23:40.558Z,96.00
2023-01-19T22:26:07.765Z,95.60
2023-01-19T22:28:34.761Z,95.90
2023-01-19T22:31:05.665Z,95.80
2023-01-19T22:33:32.795Z,95.70
2023-01-19T22:36:29.876Z,95.40
2023-01-19T22:38:57.565Z,94.80
2023-01-19T22:41:32.833Z,96.60
2023-01-19T22:44:01.382Z,97.00
2023-01-19T22:46:30.082Z,96.70
2023-01-19T22:48:57.400Z,97.50
2023-01-19T22:51:24.793Z,97.30
2023-01-19T22:53:51.985Z,97.50
2023-01-19T22:56:20.313Z,97.80
2023-01-19T22:58:47.573Z,96.90
2023-01-19T23:01:16.632Z,96.70
2023-01-19T23:03:43.613Z,97.00
2023-01-19T23:06:12.300Z,96.40
2023-01-19T23:08:39.482Z,95.50
2023-01-19T23:11:07.777Z,95.60
2023-01-19T23:13:34.881Z,95.50
2023-01-19T23:16:02.136Z,95.40
2023-01-19T23:18:29.436Z,95.00
2023-01-19T23:20:56.334Z,94.50
2023-01-19T23:23:23.229Z,94.80
2023-01-19T23:25:50.232Z,94.90
2023-01-19T23:28:17.203Z,94.70
2023-01-19T23:30:44.187Z,94.90
2023-01-19T23:33:11.214Z,94.40
2023-01-19T23:35:38.170Z,94.30
2023-01-19T23:38:05.072Z,93.50
2023-01-19T23:40:31.996Z,93.60
2023-01-19T23:42:58.873Z,93.60
2023-01-19T23:45:26.005Z,93.30
2023-01-19T23:47:52.907Z,93.90
2023-01-19T23:50:19.900Z,93.30
2023-01-19T23:52:46.847Z,93.50
2023-01-19T23:55:14.034Z,92.90
2023-01-19T23:57:41.069Z,92.50
